sensor_id;sensor_type;location;lat;lon;timestamp;temperature;humidity
55135;DHT22;41031;44.750;11.308;2022-12-05T00:01:16;10.00;99.90
55135;DHT22;41031;44.750;11.308;2022-12-05T00:03:44;10.00;99.90
55135;DHT22;41031;44.750;11.308;2022-12-05T00:06:11;10.00;99.90
55135;DHT22;41031;44.750;11.308;2022-12-05T00:08:38;10.00;99.90
55135;DHT22;41031;44.750;11.308;2022-12-05T00:11:18;10.00;99.90
55135;DHT22;41031;44.750;11.308;2022-12-05T00:13:47;10.00;99.90
55135;DHT22;41031;44.750;11.308;2022-12-05T00:16:16;10.00;99.90
55135;DHT22;41031;44.750;11.308;2022-12-05T00:18:44;10.00;99.90
55135;DHT22;41031;44.750;11.308;2022-12-05T00:21:14;10.00;99.90
55135;DHT22;41031;44.750;11.308;2022-12-05T00:23:41;10.00;99.90
55135;DHT22;41031;44.750;11.308;2022-12-05T00:26:09;10.00;99.90
55135;DHT22;41031;44.750;11.308;2022-12-05T00:28:36;10.00;99.90
55135;DHT22;41031;44.750;11.308;2022-12-05T00:31:09;10.10;99.90
55135;DHT22;41031;44.750;11.308;2022-12-05T00:33:37;10.10;99.90
55135;DHT22;41031;44.750;11.308;2022-12-05T00:36:10;10.10;99.90
55135;DHT22;41031;44.750;11.308;2022-12-05T00:38:37;10.10;99.90
55135;DHT22;41031;44.750;11.308;2022-12-05T00:41:07;10.10;99.90
55135;DHT22;41031;44.750;11.308;2022-12-05T00:43:35;10.10;99.90
55135;DHT22;41031;44.750;11.308;2022-12-05T00:46:08;10.20;99.90
55135;DHT22;41031;44.750;11.308;2022-12-05T00:48:35;10.20;99.90
55135;DHT22;41031;44.750;11.308;2022-12-05T00:51:05;10.20;99.90
55135;DHT22;41031;44.750;11.308;2022-12-05T00:53:32;10.20;99.90
55135;DHT22;41031;44.750;11.308;2022-12-05T00:56:11;10.20;99.90
55135;DHT22;41031;44.750;11.308;2022-12-05T00:58:39;10.30;99.90
55135;DHT22;41031;44.750;11.308;2022-12-05T01:03:33;10.30;99.90
55135;DHT22;41031;44.750;11.308;2022-12-05T01:06:00;10.30;99.90
55135;DHT22;41031;44.750;11.308;2022-12-05T01:08:28;10.40;99.90
55135;DHT22;41031;44.750;11.308;2022-12-05T01:10:55;10.30;99.90
55135;DHT22;41031;44.750;11.308;2022-12-05T01:13:24;10.40;99.90
55135;DHT22;41031;44.750;11.308;2022-12-05T01:15:51;10.40;99.90
55135;DHT22;41031;44.750;11.308;2022-12-05T01:18:20;10.40;99.90
55135;DHT22;41031;44.750;11.308;2022-12-05T01:20:47;10.40;99.90
55135;DHT22;41031;44.750;11.308;2022-12-05T01:23:15;10.40;99.90
55135;DHT22;41031;44.750;11.308;2022-12-05T01:25:44;10.40;99.90
55135;DHT22;41031;44.750;11.308;2022-12-05T01:28:12;10.40;99.90
55135;DHT22;41031;44.750;11.308;2022-12-05T01:30:42;10.40;99.90
55135;DHT22;41031;44.750;11.308;2022-12-05T01:33:09;10.40;99.90
55135;DHT22;41031;44.750;11.308;2022-12-05T01:35:38;10.40;99.90
55135;DHT22;41031;44.750;11.308;2022-12-05T01:38:06;10.50;99.90
55135;DHT22;41031;44.750;11.308;2022-12-05T01:40:34;10.50;99.90
55135;DHT22;41031;44.750;11.308;2022-12-05T01:43:09;10.50;99.90
55135;DHT22;41031;44.750;11.308;2022-12-05T01:45:42;10.40;99.90
55135;DHT22;41031;44.750;11.308;2022-12-05T01:48:18;10.50;99.90
55135;DHT22;41031;44.750;11.308;2022-12-05T01:50:46;10.40;99.90
55135;DHT22;41031;44.750;11.308;2022-12-05T01:53:15;10.40;99.90
55135;DHT22;41031;44.750;11.308;2022-12-05T01:55:45;10.40;99.90
55135;DHT22;41031;44.750;11.308;2022-12-05T01:58:13;10.40;99.90
55135;DHT22;41031;44.750;11.308;2022-12-05T02:00:41;10.40;99.90
55135;DHT22;41031;44.750;11.308;2022-12-05T02:03:13;10.40;99.90
55135;DHT22;41031;44.750;11.308;2022-12-05T02:05:42;10.50;99.90
55135;DHT22;41031;44.750;11.308;2022-12-05T02:08:11;10.50;99.90
55135;DHT22;41031;44.750;11.308;2022-12-05T02:10:50;10.50;99.90
55135;DHT22;41031;44.750;11.308;2022-12-05T02:13:30;10.50;99.90
55135;DHT22;41031;44.750;11.308;2022-12-05T02:18:46;10.50;99.90
55135;DHT22;41031;44.750;11.308;2022-12-05T02:30:11;10.50;99.90
55135;DHT22;41031;44.750;11.308;2022-12-05T02:33:04;10.50;99.90
55135;DHT22;41031;44.750;11.308;2022-12-05T02:46:27;10.60;99.90
55135;DHT22;41031;44.750;11.308;2022-12-05T02:49:00;10.60;99.90
55135;DHT22;41031;44.750;11.308;2022-12-05T02:51:34;10.50;99.90
55135;DHT22;41031;44.750;11.308;2022-12-05T02:54:07;10.50;99.90
55135;DHT22;41031;44.750;11.308;2022-12-05T02:56:36;10.60;99.90
55135;DHT22;41031;44.750;11.308;2022-12-05T02:59:03;10.50;99.90
55135;DHT22;41031;44.750;11.308;2022-12-05T03:01:31;10.50;99.90
55135;DHT22;41031;44.750;11.308;2022-12-05T03:04:02;10.50;99.90
55135;DHT22;41031;44.750;11.308;2022-12-05T03:06:32;10.60;99.90
55135;DHT22;41031;44.750;11.308;2022-12-05T03:09:26;10.60;99.90
55135;DHT22;41031;44.750;11.308;2022-12-05T03:12:02;10.50;99.90
55135;DHT22;41031;44.750;11.308;2022-12-05T03:14:41;10.50;99.90
55135;DHT22;41031;44.750;11.308;2022-12-05T03:17:13;10.60;99.90
55135;DHT22;41031;44.750;11.308;2022-12-05T03:24:58;10.60;99.90
55135;DHT22;41031;44.750;11.308;2022-12-05T03:30:04;10.60;99.80
55135;DHT22;41031;44.750;11.308;2022-12-05T03:32:51;10.60;99.80
55135;DHT22;41031;44.750;11.308;2022-12-05T03:39:10;10.60;99.80
55135;DHT22;41031;44.750;11.308;2022-12-05T03:41:43;10.60;99.90
55135;DHT22;41031;44.750;11.308;2022-12-05T03:44:16;10.60;99.70
55135;DHT22;41031;44.750;11.308;2022-12-05T03:47:02;10.60;99.70
55135;DHT22;41031;44.750;11.308;2022-12-05T03:49:44;10.60;99.70
55135;DHT22;41031;44.750;11.308;2022-12-05T03:54:52;10.60;99.70
55135;DHT22;41031;44.750;11.308;2022-12-05T03:57:54;10.50;99.70
55135;DHT22;41031;44.750;11.308;2022-12-05T04:00:21;10.50;99.80
55135;DHT22;41031;44.750;11.308;2022-12-05T04:07:50;10.50;99.70
55135;DHT22;41031;44.750;11.308;2022-12-05T04:10:25;10.40;99.70
55135;DHT22;41031;44.750;11.308;2022-12-05T04:12:55;10.40;99.80
55135;DHT22;41031;44.750;11.308;2022-12-05T04:15:28;10.40;99.90
55135;DHT22;41031;44.750;11.308;2022-12-05T04:18:19;10.40;99.90
55135;DHT22;41031;44.750;11.308;2022-12-05T04:20:47;10.30;99.90
55135;DHT22;41031;44.750;11.308;2022-12-05T04:23:33;10.30;99.90
55135;DHT22;41031;44.750;11.308;2022-12-05T04:26:20;10.40;99.90
55135;DHT22;41031;44.750;11.308;2022-12-05T04:28:55;10.40;99.90
55135;DHT22;41031;44.750;11.308;2022-12-05T04:31:28;10.30;99.90
55135;DHT22;41031;44.750;11.308;2022-12-05T04:34:00;10.40;99.90
55135;DHT22;41031;44.750;11.308;2022-12-05T04:39:08;10.40;99.90
55135;DHT22;41031;44.750;11.308;2022-12-05T04:41:50;10.40;99.90
55135;DHT22;41031;44.750;11.308;2022-12-05T04:44:24;10.40;99.90
55135;DHT22;41031;44.750;11.308;2022-12-05T04:46:52;10.40;99.90
55135;DHT22;41031;44.750;11.308;2022-12-05T04:49:25;10.40;99.90
55135;DHT22;41031;44.750;11.308;2022-12-05T04:51:55;10.40;99.90
55135;DHT22;41031;44.750;11.308;2022-12-05T04:54:30;10.40;99.90
55135;DHT22;41031;44.750;11.308;2022-12-05T04:57:09;10.40;99.90
55135;DHT22;41031;44.750;11.308;2022-12-05T04:59:38;10.40;99.90
55135;DHT22;41031;44.750;11.308;2022-12-05T05:02:09;10.40;99.90
55135;DHT22;41031;44.750;11.308;2022-12-05T05:04:42;10.40;99.90
55135;DHT22;41031;44.750;11.308;2022-12-05T05:07:12;10.40;99.90
55135;DHT22;41031;44.750;11.308;2022-12-05T05:09:39;10.40;99.90
55135;DHT22;41031;44.750;11.308;2022-12-05T05:12:07;10.40;99.90
55135;DHT22;41031;44.750;11.308;2022-12-05T05:14:34;10.50;99.90
55135;DHT22;41031;44.750;11.308;2022-12-05T05:17:02;10.40;99.90
55135;DHT22;41031;44.750;11.308;2022-12-05T05:19:29;10.40;99.90
55135;DHT22;41031;44.750;11.308;2022-12-05T05:21:56;10.40;99.90
55135;DHT22;41031;44.750;11.308;2022-12-05T05:24:23;10.40;99.90
55135;DHT22;41031;44.750;11.308;2022-12-05T05:26:52;10.40;99.90
55135;DHT22;41031;44.750;11.308;2022-12-05T05:29:23;10.40;99.90
55135;DHT22;41031;44.750;11.308;2022-12-05T05:31:50;10.40;99.90
55135;DHT22;41031;44.750;11.308;2022-12-05T05:34:17;10.40;99.90
55135;DHT22;41031;44.750;11.308;2022-12-05T05:36:44;10.50;99.90
55135;DHT22;41031;44.750;11.308;2022-12-05T05:39:13;10.40;99.90
55135;DHT22;41031;44.750;11.308;2022-12-05T05:41:41;10.50;99.90
55135;DHT22;41031;44.750;11.308;2022-12-05T05:44:09;10.50;99.90
55135;DHT22;41031;44.750;11.308;2022-12-05T05:46:37;10.50;99.90
55135;DHT22;41031;44.750;11.308;2022-12-05T05:49:05;10.50;99.90
55135;DHT22;41031;44.750;11.308;2022-12-05T05:51:32;10.50;99.90
55135;DHT22;41031;44.750;11.308;2022-12-05T05:53:59;10.60;99.90
55135;DHT22;41031;44.750;11.308;2022-12-05T05:56:27;10.50;99.90
55135;DHT22;41031;44.750;11.308;2022-12-05T05:59:00;10.60;99.90
55135;DHT22;41031;44.750;11.308;2022-12-05T06:01:28;10.60;99.90
55135;DHT22;41031;44.750;11.308;2022-12-05T06:03:56;10.50;99.90
55135;DHT22;41031;44.750;11.308;2022-12-05T06:06:24;10.50;99.90
55135;DHT22;41031;44.750;11.308;2022-12-05T06:08:51;10.50;99.90
55135;DHT22;41031;44.750;11.308;2022-12-05T06:11:26;10.50;99.90
55135;DHT22;41031;44.750;11.308;2022-12-05T06:13:54;10.50;99.90
55135;DHT22;41031;44.750;11.308;2022-12-05T06:16:21;10.50;99.90
55135;DHT22;41031;44.750;11.308;2022-12-05T06:18:49;10.50;99.90
55135;DHT22;41031;44.750;11.308;2022-12-05T06:21:17;10.50;99.90
55135;DHT22;41031;44.750;11.308;2022-12-05T06:23:44;10.50;99.90
55135;DHT22;41031;44.750;11.308;2022-12-05T06:26:14;10.50;99.90
55135;DHT22;41031;44.750;11.308;2022-12-05T06:28:42;10.50;99.90
55135;DHT22;41031;44.750;11.308;2022-12-05T06:31:13;10.50;99.90
55135;DHT22;41031;44.750;11.308;2022-12-05T06:33:41;10.50;99.90
55135;DHT22;41031;44.750;11.308;2022-12-05T06:36:11;10.50;99.90
55135;DHT22;41031;44.750;11.308;2022-12-05T06:38:39;10.50;99.90
55135;DHT22;41031;44.750;11.308;2022-12-05T06:41:16;10.50;99.90
55135;DHT22;41031;44.750;11.308;2022-12-05T06:43:44;10.50;99.90
55135;DHT22;41031;44.750;11.308;2022-12-05T06:46:13;10.50;99.90
55135;DHT22;41031;44.750;11.308;2022-12-05T06:48:40;10.50;99.90
55135;DHT22;41031;44.750;11.308;2022-12-05T06:51:12;10.50;99.90
55135;DHT22;41031;44.750;11.308;2022-12-05T06:53:40;10.50;99.90
55135;DHT22;41031;44.750;11.308;2022-12-05T06:56:10;10.60;99.90
55135;DHT22;41031;44.750;11.308;2022-12-05T06:58:42;10.60;99.90
55135;DHT22;41031;44.750;11.308;2022-12-05T07:01:18;10.60;99.90
55135;DHT22;41031;44.750;11.308;2022-12-05T07:04:15;10.60;99.90
55135;DHT22;41031;44.750;11.308;2022-12-05T07:06:43;10.60;99.90
55135;DHT22;41031;44.750;11.308;2022-12-05T07:09:18;10.60;99.90
55135;DHT22;41031;44.750;11.308;2022-12-05T07:11:47;10.60;99.90
55135;DHT22;41031;44.750;11.308;2022-12-05T07:14:14;10.60;99.90
55135;DHT22;41031;44.750;11.308;2022-12-05T07:17:02;10.60;99.90
55135;DHT22;41031;44.750;11.308;2022-12-05T07:19:29;10.60;99.90
55135;DHT22;41031;44.750;11.308;2022-12-05T07:21:56;10.60;99.90
55135;DHT22;41031;44.750;11.308;2022-12-05T07:24:23;10.70;99.90
55135;DHT22;41031;44.750;11.308;2022-12-05T07:26:50;10.70;99.90
55135;DHT22;41031;44.750;11.308;2022-12-05T07:29:17;10.70;99.90
55135;DHT22;41031;44.750;11.308;2022-12-05T07:31:44;10.70;99.90
55135;DHT22;41031;44.750;11.308;2022-12-05T07:34:12;10.70;99.90
55135;DHT22;41031;44.750;11.308;2022-12-05T07:36:39;10.70;99.90
55135;DHT22;41031;44.750;11.308;2022-12-05T07:39:06;10.70;99.90
55135;DHT22;41031;44.750;11.308;2022-12-05T07:41:33;10.70;99.90
55135;DHT22;41031;44.750;11.308;2022-12-05T07:44:05;10.70;99.90
55135;DHT22;41031;44.750;11.308;2022-12-05T07:46:33;10.70;99.90
55135;DHT22;41031;44.750;11.308;2022-12-05T07:49:00;10.80;99.90
55135;DHT22;41031;44.750;11.308;2022-12-05T07:51:27;10.80;99.90
55135;DHT22;41031;44.750;11.308;2022-12-05T07:53:57;10.80;99.90
55135;DHT22;41031;44.750;11.308;2022-12-05T07:56:24;10.80;99.90
55135;DHT22;41031;44.750;11.308;2022-12-05T07:58:51;10.90;99.90
55135;DHT22;41031;44.750;11.308;2022-12-05T08:01:22;10.90;99.90
55135;DHT22;41031;44.750;11.308;2022-12-05T08:03:52;10.80;99.90
55135;DHT22;41031;44.750;11.308;2022-12-05T08:06:22;10.80;99.90
55135;DHT22;41031;44.750;11.308;2022-12-05T08:08:50;10.90;99.90
55135;DHT22;41031;44.750;11.308;2022-12-05T08:11:20;10.80;99.90
55135;DHT22;41031;44.750;11.308;2022-12-05T08:13:47;10.80;99.90
55135;DHT22;41031;44.750;11.308;2022-12-05T08:16:19;10.80;99.90
55135;DHT22;41031;44.750;11.308;2022-12-05T08:18:47;10.80;99.90
55135;DHT22;41031;44.750;11.308;2022-12-05T08:21:17;10.80;99.90
55135;DHT22;41031;44.750;11.308;2022-12-05T08:23:45;10.80;99.90
55135;DHT22;41031;44.750;11.308;2022-12-05T08:26:15;10.90;99.90
55135;DHT22;41031;44.750;11.308;2022-12-05T08:28:42;10.90;99.90
55135;DHT22;41031;44.750;11.308;2022-12-05T08:31:15;10.90;99.90
55135;DHT22;41031;44.750;11.308;2022-12-05T08:33:43;11.00;99.90
55135;DHT22;41031;44.750;11.308;2022-12-05T08:36:12;11.00;99.90
55135;DHT22;41031;44.750;11.308;2022-12-05T08:38:39;11.00;99.90
55135;DHT22;41031;44.750;11.308;2022-12-05T08:41:10;11.00;99.90
55135;DHT22;41031;44.750;11.308;2022-12-05T08:43:37;11.10;99.90
55135;DHT22;41031;44.750;11.308;2022-12-05T08:46:04;11.00;99.90
55135;DHT22;41031;44.750;11.308;2022-12-05T08:48:33;11.10;99.90
55135;DHT22;41031;44.750;11.308;2022-12-05T08:51:08;11.10;99.90
55135;DHT22;41031;44.750;11.308;2022-12-05T08:53:36;11.10;99.90
55135;DHT22;41031;44.750;11.308;2022-12-05T08:56:10;11.20;99.90
55135;DHT22;41031;44.750;11.308;2022-12-05T08:58:38;11.20;99.90
55135;DHT22;41031;44.750;11.308;2022-12-05T09:01:10;11.20;99.90
55135;DHT22;41031;44.750;11.308;2022-12-05T09:03:39;11.20;99.90
55135;DHT22;41031;44.750;11.308;2022-12-05T09:06:23;11.20;99.90
55135;DHT22;41031;44.750;11.308;2022-12-05T09:08:59;11.20;99.90
55135;DHT22;41031;44.750;11.308;2022-12-05T09:11:30;11.20;99.90
55135;DHT22;41031;44.750;11.308;2022-12-05T09:13:58;11.20;99.90
55135;DHT22;41031;44.750;11.308;2022-12-05T09:16:31;11.20;99.90
55135;DHT22;41031;44.750;11.308;2022-12-05T09:19:10;11.20;99.90
55135;DHT22;41031;44.750;11.308;2022-12-05T09:21:38;11.20;99.90
55135;DHT22;41031;44.750;11.308;2022-12-05T09:24:05;11.20;99.90
55135;DHT22;41031;44.750;11.308;2022-12-05T09:26:32;11.30;99.90
55135;DHT22;41031;44.750;11.308;2022-12-05T09:29:00;11.30;99.90
55135;DHT22;41031;44.750;11.308;2022-12-05T09:31:28;11.30;99.90
55135;DHT22;41031;44.750;11.308;2022-12-05T09:33:56;11.40;99.90
55135;DHT22;41031;44.750;11.308;2022-12-05T09:36:28;11.40;99.90
55135;DHT22;41031;44.750;11.308;2022-12-05T09:39:01;11.40;99.90
55135;DHT22;41031;44.750;11.308;2022-12-05T09:41:46;11.50;99.90
55135;DHT22;41031;44.750;11.308;2022-12-05T10:01:03;11.60;99.90
55135;DHT22;41031;44.750;11.308;2022-12-05T10:06:44;11.60;99.90
55135;DHT22;41031;44.750;11.308;2022-12-05T10:09:18;11.60;99.90
55135;DHT22;41031;44.750;11.308;2022-12-05T10:12:14;11.60;99.90
55135;DHT22;41031;44.750;11.308;2022-12-05T10:17:25;11.60;99.90
55135;DHT22;41031;44.750;11.308;2022-12-05T10:19:59;11.70;99.90
55135;DHT22;41031;44.750;11.308;2022-12-05T10:22:48;11.70;99.90
55135;DHT22;41031;44.750;11.308;2022-12-05T10:25:20;11.70;99.90
55135;DHT22;41031;44.750;11.308;2022-12-05T10:27:53;11.70;99.90
55135;DHT22;41031;44.750;11.308;2022-12-05T10:30:32;11.80;99.90
55135;DHT22;41031;44.750;11.308;2022-12-05T10:33:17;11.80;99.90
55135;DHT22;41031;44.750;11.308;2022-12-05T10:35:46;11.80;99.90
55135;DHT22;41031;44.750;11.308;2022-12-05T10:38:23;11.80;99.90
55135;DHT22;41031;44.750;11.308;2022-12-05T10:40:58;11.80;99.90
55135;DHT22;41031;44.750;11.308;2022-12-05T10:43:29;11.80;99.90
55135;DHT22;41031;44.750;11.308;2022-12-05T10:45:57;11.80;99.90
55135;DHT22;41031;44.750;11.308;2022-12-05T10:48:26;11.80;99.90
55135;DHT22;41031;44.750;11.308;2022-12-05T10:50:56;11.80;99.90
55135;DHT22;41031;44.750;11.308;2022-12-05T10:53:44;11.90;99.90
55135;DHT22;41031;44.750;11.308;2022-12-05T10:59:20;12.00;99.90
55135;DHT22;41031;44.750;11.308;2022-12-05T11:01:49;12.00;99.90
55135;DHT22;41031;44.750;11.308;2022-12-05T11:04:31;12.00;99.80
55135;DHT22;41031;44.750;11.308;2022-12-05T11:07:09;12.10;99.80
55135;DHT22;41031;44.750;11.308;2022-12-05T11:09:49;12.10;99.80
55135;DHT22;41031;44.750;11.308;2022-12-05T11:12:19;12.10;99.80
55135;DHT22;41031;44.750;11.308;2022-12-05T11:17:42;12.20;99.70
55135;DHT22;41031;44.750;11.308;2022-12-05T11:22:48;12.20;99.50
55135;DHT22;41031;44.750;11.308;2022-12-05T11:33:33;12.20;99.30
55135;DHT22;41031;44.750;11.308;2022-12-05T11:36:18;12.20;99.40
55135;DHT22;41031;44.750;11.308;2022-12-05T11:38:46;12.30;99.40
55135;DHT22;41031;44.750;11.308;2022-12-05T11:52:53;12.40;99.20
55135;DHT22;41031;44.750;11.308;2022-12-05T11:55:32;12.40;98.90
55135;DHT22;41031;44.750;11.308;2022-12-05T11:58:16;12.40;98.90
55135;DHT22;41031;44.750;11.308;2022-12-05T12:13:10;12.40;98.80
55135;DHT22;41031;44.750;11.308;2022-12-05T12:30:44;12.50;98.80
55135;DHT22;41031;44.750;11.308;2022-12-05T12:39:06;12.60;98.80
55135;DHT22;41031;44.750;11.308;2022-12-05T12:47:00;12.70;98.70
55135;DHT22;41031;44.750;11.308;2022-12-05T12:52:02;12.70;98.50
55135;DHT22;41031;44.750;11.308;2022-12-05T13:00:59;12.70;98.40
55135;DHT22;41031;44.750;11.308;2022-12-05T13:03:36;12.80;98.40
55135;DHT22;41031;44.750;11.308;2022-12-05T13:06:28;12.80;98.30
55135;DHT22;41031;44.750;11.308;2022-12-05T13:09:03;12.80;98.30
55135;DHT22;41031;44.750;11.308;2022-12-05T13:11:36;12.80;98.20
55135;DHT22;41031;44.750;11.308;2022-12-05T13:14:09;12.90;98.20
55135;DHT22;41031;44.750;11.308;2022-12-05T13:16:40;12.90;98.20
55135;DHT22;41031;44.750;11.308;2022-12-05T13:22:22;12.90;98.10
55135;DHT22;41031;44.750;11.308;2022-12-05T13:24:51;13.00;98.10
55135;DHT22;41031;44.750;11.308;2022-12-05T13:27:26;13.00;98.10
55135;DHT22;41031;44.750;11.308;2022-12-05T13:30:00;13.00;98.00
55135;DHT22;41031;44.750;11.308;2022-12-05T13:32:32;12.90;97.90
55135;DHT22;41031;44.750;11.308;2022-12-05T13:35:22;12.90;97.90
55135;DHT22;41031;44.750;11.308;2022-12-05T13:38:31;12.90;97.90
55135;DHT22;41031;44.750;11.308;2022-12-05T13:41:18;12.80;97.80
55135;DHT22;41031;44.750;11.308;2022-12-05T13:44:04;12.80;97.80
55135;DHT22;41031;44.750;11.308;2022-12-05T13:46:39;12.80;97.80
55135;DHT22;41031;44.750;11.308;2022-12-05T13:49:43;12.80;97.90
55135;DHT22;41031;44.750;11.308;2022-12-05T13:52:17;12.80;97.80
55135;DHT22;41031;44.750;11.308;2022-12-05T13:55:37;12.80;97.80
55135;DHT22;41031;44.750;11.308;2022-12-05T14:12:58;12.70;97.90
55135;DHT22;41031;44.750;11.308;2022-12-05T14:15:34;12.70;97.90
55135;DHT22;41031;44.750;11.308;2022-12-05T14:34:32;12.70;98.10
55135;DHT22;41031;44.750;11.308;2022-12-05T14:37:07;12.60;98.10
55135;DHT22;41031;44.750;11.308;2022-12-05T14:39:49;12.60;98.00
55135;DHT22;41031;44.750;11.308;2022-12-05T14:42:25;12.60;98.00
55135;DHT22;41031;44.750;11.308;2022-12-05T14:44:56;12.60;98.10
55135;DHT22;41031;44.750;11.308;2022-12-05T14:47:31;12.60;98.10
55135;DHT22;41031;44.750;11.308;2022-12-05T14:50:21;12.50;98.20
55135;DHT22;41031;44.750;11.308;2022-12-05T14:55:45;12.50;98.30
55135;DHT22;41031;44.750;11.308;2022-12-05T15:01:04;12.50;98.30
55135;DHT22;41031;44.750;11.308;2022-12-05T15:03:37;12.40;98.30
55135;DHT22;41031;44.750;11.308;2022-12-05T15:06:10;12.50;98.40
55135;DHT22;41031;44.750;11.308;2022-12-05T15:08:49;12.50;98.40
55135;DHT22;41031;44.750;11.308;2022-12-05T15:11:18;12.40;98.40
55135;DHT22;41031;44.750;11.308;2022-12-05T15:14:03;12.40;98.50
55135;DHT22;41031;44.750;11.308;2022-12-05T15:16:37;12.40;98.50
55135;DHT22;41031;44.750;11.308;2022-12-05T15:22:15;12.40;98.60
55135;DHT22;41031;44.750;11.308;2022-12-05T15:24:42;12.30;98.60
55135;DHT22;41031;44.750;11.308;2022-12-05T15:27:11;12.40;98.60
55135;DHT22;41031;44.750;11.308;2022-12-05T15:29:39;12.30;98.60
55135;DHT22;41031;44.750;11.308;2022-12-05T15:35:15;12.30;98.70
55135;DHT22;41031;44.750;11.308;2022-12-05T15:37:51;12.30;98.70
55135;DHT22;41031;44.750;11.308;2022-12-05T15:40:23;12.30;98.80
55135;DHT22;41031;44.750;11.308;2022-12-05T15:42:55;12.20;98.80
55135;DHT22;41031;44.750;11.308;2022-12-05T15:45:25;12.20;98.80
55135;DHT22;41031;44.750;11.308;2022-12-05T15:47:53;12.20;98.80
55135;DHT22;41031;44.750;11.308;2022-12-05T15:50:40;12.20;98.90
55135;DHT22;41031;44.750;11.308;2022-12-05T15:53:16;12.20;98.90
55135;DHT22;41031;44.750;11.308;2022-12-05T15:58:24;12.10;98.90
55135;DHT22;41031;44.750;11.308;2022-12-05T16:01:14;12.10;98.90
55135;DHT22;41031;44.750;11.308;2022-12-05T16:06:54;12.10;99.00
55135;DHT22;41031;44.750;11.308;2022-12-05T16:09:25;12.00;99.00
55135;DHT22;41031;44.750;11.308;2022-12-05T16:11:59;12.00;99.00
55135;DHT22;41031;44.750;11.308;2022-12-05T16:14:36;12.00;99.10
55135;DHT22;41031;44.750;11.308;2022-12-05T16:17:23;12.00;99.10
55135;DHT22;41031;44.750;11.308;2022-12-05T16:19:51;12.00;99.10
55135;DHT22;41031;44.750;11.308;2022-12-05T16:22:22;11.90;99.10
55135;DHT22;41031;44.750;11.308;2022-12-05T16:25:00;11.90;99.20
55135;DHT22;41031;44.750;11.308;2022-12-05T16:27:34;11.90;99.20
55135;DHT22;41031;44.750;11.308;2022-12-05T16:30:21;11.90;99.20
55135;DHT22;41031;44.750;11.308;2022-12-05T16:32:56;11.90;99.30
55135;DHT22;41031;44.750;11.308;2022-12-05T16:35:41;11.90;99.10
55135;DHT22;41031;44.750;11.308;2022-12-05T16:38:27;11.90;99.10
55135;DHT22;41031;44.750;11.308;2022-12-05T16:41:03;11.80;99.10
55135;DHT22;41031;44.750;11.308;2022-12-05T16:51:40;11.70;99.30
55135;DHT22;41031;44.750;11.308;2022-12-05T16:54:08;11.70;99.30
55135;DHT22;41031;44.750;11.308;2022-12-05T16:56:35;11.70;99.40
55135;DHT22;41031;44.750;11.308;2022-12-05T16:59:04;11.70;99.40
55135;DHT22;41031;44.750;11.308;2022-12-05T17:01:31;11.60;99.40
55135;DHT22;41031;44.750;11.308;2022-12-05T17:04:04;11.60;99.50
55135;DHT22;41031;44.750;11.308;2022-12-05T17:06:31;11.60;99.50
55135;DHT22;41031;44.750;11.308;2022-12-05T17:08:58;11.60;99.50
55135;DHT22;41031;44.750;11.308;2022-12-05T17:11:28;11.60;99.50
55135;DHT22;41031;44.750;11.308;2022-12-05T17:13:56;11.60;99.40
55135;DHT22;41031;44.750;11.308;2022-12-05T17:16:24;11.60;99.30
55135;DHT22;41031;44.750;11.308;2022-12-05T17:18:54;11.50;99.20
55135;DHT22;41031;44.750;11.308;2022-12-05T17:21:24;11.50;99.30
55135;DHT22;41031;44.750;11.308;2022-12-05T17:23:52;11.50;99.40
55135;DHT22;41031;44.750;11.308;2022-12-05T17:26:20;11.50;99.50
55135;DHT22;41031;44.750;11.308;2022-12-05T17:28:48;11.50;99.50
55135;DHT22;41031;44.750;11.308;2022-12-05T17:31:18;11.50;99.50
55135;DHT22;41031;44.750;11.308;2022-12-05T17:33:47;11.50;99.80
55135;DHT22;41031;44.750;11.308;2022-12-05T17:36:15;11.50;99.50
55135;DHT22;41031;44.750;11.308;2022-12-05T17:38:43;11.50;99.60
55135;DHT22;41031;44.750;11.308;2022-12-05T17:41:29;11.50;99.70
55135;DHT22;41031;44.750;11.308;2022-12-05T17:43:56;11.50;99.70
55135;DHT22;41031;44.750;11.308;2022-12-05T17:46:23;11.50;99.70
55135;DHT22;41031;44.750;11.308;2022-12-05T17:48:52;11.50;99.70
55135;DHT22;41031;44.750;11.308;2022-12-05T17:51:19;11.50;99.60
55135;DHT22;41031;44.750;11.308;2022-12-05T17:53:48;11.50;99.60
55135;DHT22;41031;44.750;11.308;2022-12-05T17:56:15;11.50;99.70
55135;DHT22;41031;44.750;11.308;2022-12-05T17:58:42;11.50;99.70
55135;DHT22;41031;44.750;11.308;2022-12-05T18:01:18;11.50;99.60
55135;DHT22;41031;44.750;11.308;2022-12-05T18:03:46;11.50;99.70
55135;DHT22;41031;44.750;11.308;2022-12-05T18:06:14;11.50;99.60
55135;DHT22;41031;44.750;11.308;2022-12-05T18:08:41;11.50;99.70
55135;DHT22;41031;44.750;11.308;2022-12-05T18:11:12;11.50;99.60
55135;DHT22;41031;44.750;11.308;2022-12-05T18:13:39;11.50;99.60
55135;DHT22;41031;44.750;11.308;2022-12-05T18:16:07;11.50;99.60
55135;DHT22;41031;44.750;11.308;2022-12-05T18:18:34;11.50;99.60
55135;DHT22;41031;44.750;11.308;2022-12-05T18:21:06;11.50;99.50
55135;DHT22;41031;44.750;11.308;2022-12-05T18:23:34;11.50;99.50
55135;DHT22;41031;44.750;11.308;2022-12-05T18:26:03;11.50;99.80
55135;DHT22;41031;44.750;11.308;2022-12-05T18:28:33;11.50;99.60
55135;DHT22;41031;44.750;11.308;2022-12-05T18:31:06;11.50;99.60
55135;DHT22;41031;44.750;11.308;2022-12-05T18:33:36;11.50;99.50
55135;DHT22;41031;44.750;11.308;2022-12-05T18:36:08;11.50;99.60
55135;DHT22;41031;44.750;11.308;2022-12-05T18:38:37;11.50;99.60
55135;DHT22;41031;44.750;11.308;2022-12-05T18:41:05;11.50;99.50
55135;DHT22;41031;44.750;11.308;2022-12-05T18:43:32;11.50;99.50
55135;DHT22;41031;44.750;11.308;2022-12-05T18:46:01;11.50;99.50
55135;DHT22;41031;44.750;11.308;2022-12-05T18:48:30;11.50;99.50
55135;DHT22;41031;44.750;11.308;2022-12-05T18:51:07;11.50;99.50
55135;DHT22;41031;44.750;11.308;2022-12-05T18:53:34;11.50;99.50
55135;DHT22;41031;44.750;11.308;2022-12-05T18:56:11;11.50;99.50
55135;DHT22;41031;44.750;11.308;2022-12-05T18:58:53;11.50;99.60
55135;DHT22;41031;44.750;11.308;2022-12-05T19:01:20;11.50;99.50
55135;DHT22;41031;44.750;11.308;2022-12-05T19:03:48;11.50;99.50
55135;DHT22;41031;44.750;11.308;2022-12-05T19:06:18;11.50;99.50
55135;DHT22;41031;44.750;11.308;2022-12-05T19:08:46;11.40;99.50
55135;DHT22;41031;44.750;11.308;2022-12-05T19:11:16;11.50;99.50